Time;durP1;ratioP1;P1;durP2;ratioP2;P2;SDS_P1;SDS_P2;PMS_P1;PMS_P2;Temp;Humidity;BMP_temperature;BMP_pressure;BME280_temperature;BME280_humidity;BME280_pressure;Samples;Min_cycle;Max_cycle;Signal;HPM_P1;HPM_P2
2022/08/02 00:01:42;;;;;;;65.47;3.87;;;20.50;47.40;;;;;;5072844;28;20412;-85
2022/08/02 00:04:08;;;;;;;65.77;4.17;;;20.50;48.00;;;;;;5074440;28;20162;-85
2022/08/02 00:06:35;;;;;;;66.50;4.20;;;20.50;48.60;;;;;;5072763;28;20414;-85
2022/08/02 00:09:01;;;;;;;68.27;4.40;;;20.40;49.30;;;;;;5074121;28;20456;-85
2022/08/02 00:11:26;;;;;;;69.93;4.40;;;20.40;48.10;;;;;;5073894;28;20443;-85
2022/08/02 00:13:52;;;;;;;68.30;4.50;;;20.50;47.60;;;;;;5072762;28;20495;-85
2022/08/02 00:16:18;;;;;;;66.07;4.87;;;20.40;49.70;;;;;;5072617;28;20658;-85
2022/08/02 00:18:44;;;;;;;66.57;4.80;;;20.30;51.40;;;;;;5072260;28;20186;-85
2022/08/02 00:21:09;;;;;;;66.97;5.23;;;20.30;51.70;;;;;;5074362;28;20253;-85
2022/08/02 00:23:35;;;;;;;65.87;5.00;;;20.40;50.70;;;;;;5073733;28;20764;-85
2022/08/02 00:26:01;;;;;;;67.10;5.37;;;20.30;52.60;;;;;;5074146;28;20175;-85
2022/08/02 00:28:27;;;;;;;69.50;5.80;;;20.30;52.70;;;;;;5072669;28;20191;-85
2022/08/02 00:30:52;;;;;;;66.07;5.20;;;20.30;53.30;;;;;;5073844;28;20512;-85
2022/08/02 00:33:18;;;;;;;66.97;5.30;;;20.20;54.00;;;;;;5073729;28;20841;-85
2022/08/02 00:35:46;;;;;;;72.43;6.13;;;20.20;54.20;;;;;;5073786;28;20168;-85
2022/08/02 00:38:11;;;;;;;66.97;5.87;;;20.20;53.50;;;;;;5072405;28;20200;-85
2022/08/02 00:40:37;;;;;;;68.30;7.10;;;20.10;54.50;;;;;;5073704;28;20453;-85
2022/08/02 00:43:06;;;;;;;67.20;5.87;;;20.10;56.30;;;;;;5073968;28;20167;-85
2022/08/02 00:45:40;;;;;;;67.97;8.60;;;20.10;57.20;;;;;;5073762;28;20406;-85
2022/08/02 00:48:08;;;;;;;72.33;9.60;;;20.10;59.20;;;;;;5072293;28;20624;-85
2022/08/02 00:50:34;;;;;;;68.63;9.30;;;20.00;62.30;;;;;;5073204;28;20417;-85
2022/08/02 00:53:08;;;;;;;70.03;9.50;;;20.00;62.30;;;;;;5073254;28;20420;-85
2022/08/02 00:55:38;;;;;;;70.17;9.70;;;20.00;62.60;;;;;;5073481;28;20466;-85
2022/08/02 00:58:04;;;;;;;71.93;11.23;;;20.00;64.40;;;;;;5071786;28;20457;-85
2022/08/02 01:00:30;;;;;;;68.97;10.50;;;20.00;65.80;;;;;;5072799;28;20944;-85
2022/08/02 01:02:56;;;;;;;69.90;12.07;;;19.90;67.40;;;;;;5073207;28;21027;-85
2022/08/02 01:05:22;;;;;;;70.20;11.70;;;20.00;67.20;;;;;;5071806;28;20224;-85
2022/08/02 01:07:49;;;;;;;70.43;11.10;;;20.00;67.50;;;;;;5073003;28;20217;-85
2022/08/02 01:10:15;;;;;;;69.33;11.40;;;20.10;65.20;;;;;;5073028;28;20249;-85
2022/08/02 01:12:41;;;;;;;69.93;10.50;;;20.10;66.00;;;;;;5073425;28;20489;-85
2022/08/02 01:15:12;;;;;;;69.80;11.43;;;20.10;63.90;;;;;;5071905;28;20174;-85
2022/08/02 01:17:51;;;;;;;70.77;11.87;;;20.10;64.60;;;;;;5072965;28;20174;-86
2022/08/02 01:20:35;;;;;;;74.23;12.00;;;20.00;67.10;;;;;;5073013;28;20389;-85
2022/08/02 01:23:26;;;;;;;70.27;12.37;;;19.90;66.60;;;;;;5071801;28;20417;-85
2022/08/02 01:26:06;;;;;;;71.20;11.33;;;19.90;68.10;;;;;;5073003;28;20795;-85
2022/08/02 01:28:37;;;;;;;71.83;15.00;;;19.90;67.90;;;;;;5071547;28;20979;-85
2022/08/02 01:31:27;;;;;;;71.20;12.60;;;19.80;69.90;;;;;;5076690;28;20398;-85
2022/08/02 01:34:16;;;;;;;74.47;13.00;;;19.80;68.20;;;;;;5077086;28;20741;-85
2022/08/02 01:37:11;;;;;;;72.90;14.27;;;19.80;68.30;;;;;;5075618;28;20439;-85
2022/08/02 01:39:42;;;;;;;71.50;12.27;;;19.80;69.90;;;;;;5072821;28;20435;-85
2022/08/02 01:42:09;;;;;;;72.97;14.40;;;19.80;69.50;;;;;;5075545;28;20460;-85
2022/08/02 01:44:37;;;;;;;71.47;14.03;;;19.80;68.10;;;;;;5077012;28;20481;-85
2022/08/02 01:47:10;;;;;;;70.30;14.43;;;19.70;70.40;;;;;;5077044;28;20408;-85
2022/08/02 01:49:38;;;;;;;71.47;15.67;;;19.70;70.60;;;;;;5076652;28;20795;-85
2022/08/02 01:52:20;;;;;;;72.10;16.70;;;19.70;70.10;;;;;;5076539;28;20422;-85
2022/08/02 01:55:08;;;;;;;70.93;16.07;;;19.60;72.40;;;;;;5076464;28;20590;-85
2022/08/02 01:57:44;;;;;;;70.90;17.17;;;19.60;71.60;;;;;;5076022;28;20453;-85
2022/08/02 02:00:11;;;;;;;70.77;15.77;;;19.60;72.40;;;;;;5076454;28;20470;-85
2022/08/02 02:02:41;;;;;;;69.40;15.60;;;19.60;71.70;;;;;;5074964;28;20889;-85
2022/08/02 02:07:37;;;;;;;72.50;17.40;;;19.50;74.70;;;;;;5054837;28;20476;-85
2022/08/02 02:10:04;;;;;;;71.97;16.80;;;19.50;73.80;;;;;;5056550;28;20395;-85
2022/08/02 02:12:36;;;;;;;77.30;17.93;;;19.50;74.30;;;;;;5056200;28;20895;-85
2022/08/02 02:15:11;;;;;;;71.37;16.53;;;19.50;75.80;;;;;;5056383;28;20393;-85
2022/08/02 02:17:48;;;;;;;72.00;17.63;;;19.50;76.30;;;;;;5054462;28;20468;-86
2022/08/02 02:20:20;;;;;;;70.90;16.73;;;19.40;76.20;;;;;;5054813;28;20540;-85
2022/08/02 02:22:46;;;;;;;71.97;16.07;;;19.40;77.60;;;;;;5054707;28;20411;-85
2022/08/02 02:25:13;;;;;;;72.43;16.40;;;19.40;78.30;;;;;;5055936;28;20437;-85
2022/08/02 02:27:53;;;;;;;75.27;16.20;;;19.30;78.00;;;;;;5055905;28;20410;-85
2022/08/02 02:30:19;;;;;;;71.07;17.20;;;19.30;79.20;;;;;;5056025;28;20476;-85
2022/08/02 02:32:47;;;;;;;73.90;19.13;;;19.30;78.30;;;;;;5055487;28;20458;-86
2022/08/02 02:35:16;;;;;;;71.77;16.90;;;19.30;75.60;;;;;;5055886;28;20399;-85
2022/08/02 02:37:43;;;;;;;74.13;16.57;;;19.20;76.90;;;;;;5055357;28;22438;-85
2022/08/02 02:40:14;;;;;;;76.13;16.90;;;19.20;77.20;;;;;;5056009;28;20435;-85
2022/08/02 02:42:41;;;;;;;72.93;14.40;;;19.20;76.80;;;;;;5053668;28;20404;-85
2022/08/02 02:45:12;;;;;;;69.93;15.60;;;19.10;77.70;;;;;;5054271;28;20417;-85
2022/08/02 02:47:39;;;;;;;68.97;14.77;;;19.10;78.40;;;;;;5055586;28;20387;-85
2022/08/02 02:50:06;;;;;;;74.03;18.47;;;19.10;81.10;;;;;;5055515;28;20408;-85
2022/08/02 02:52:33;;;;;;;71.57;18.47;;;19.10;80.20;;;;;;5123846;22;20509;-83
2022/08/02 02:55:00;;;;;;;70.40;17.77;;;19.10;79.70;;;;;;5042803;28;20452;-83
2022/08/02 02:57:26;;;;;;;74.90;19.13;;;19.00;81.60;;;;;;5060270;28;20447;-82
2022/08/02 02:59:53;;;;;;;74.70;16.03;;;19.00;80.00;;;;;;5042806;28;20439;-82
2022/08/02 03:02:19;;;;;;;71.83;15.83;;;19.10;78.60;;;;;;5043346;28;20420;-82
2022/08/02 03:04:46;;;;;;;71.30;16.10;;;19.10;77.70;;;;;;5060397;28;20391;-83
2022/08/02 03:07:12;;;;;;;71.70;16.40;;;19.00;77.70;;;;;;5060309;28;20403;-82
2022/08/02 03:09:37;;;;;;;72.00;16.33;;;19.00;78.70;;;;;;5060867;28;20415;-82
2022/08/02 03:12:04;;;;;;;71.20;15.43;;;18.90;80.00;;;;;;5043815;28;20170;-83
2022/08/02 03:14:30;;;;;;;70.00;15.00;;;18.90;80.00;;;;;;5042755;28;20176;-83
2022/08/02 03:16:55;;;;;;;70.10;12.63;;;18.80;81.10;;;;;;5060404;28;20461;-83
2022/08/02 03:19:22;;;;;;;70.77;12.20;;;18.80;82.80;;;;;;5060070;28;20520;-82
2022/08/02 03:21:49;;;;;;;74.63;12.40;;;18.80;82.30;;;;;;5059683;28;20164;-83
2022/08/02 03:24:15;;;;;;;69.53;10.57;;;18.80;82.10;;;;;;5059826;28;20418;-83
2022/08/02 03:26:41;;;;;;;69.07;13.53;;;18.80;83.40;;;;;;5059628;28;20407;-82
2022/08/02 03:29:07;;;;;;;70.40;16.23;;;18.70;81.50;;;;;;5059882;28;20195;-82
2022/08/02 03:31:35;;;;;;;71.40;14.27;;;18.70;80.60;;;;;;5060106;28;20224;-82
2022/08/02 03:34:02;;;;;;;70.00;10.40;;;18.70;81.80;;;;;;5041987;28;20488;-82
2022/08/02 03:36:31;;;;;;;70.07;12.43;;;18.70;82.00;;;;;;5059975;28;20413;-82
2022/08/02 03:38:58;;;;;;;69.30;13.70;;;18.70;82.30;;;;;;5059803;28;20423;-82
2022/08/02 03:41:24;;;;;;;73.80;12.17;;;18.70;81.70;;;;;;5041225;28;20408;-83
2022/08/02 03:43:51;;;;;;;69.97;14.03;;;18.60;82.20;;;;;;5059457;28;20403;-82
2022/08/02 03:46:21;;;;;;;69.97;12.07;;;18.60;81.60;;;;;;5059233;28;20409;-83
2022/08/02 03:48:49;;;;;;;75.33;10.97;;;18.50;83.80;;;;;;5060032;28;20886;-82
2022/08/02 03:51:15;;;;;;;69.50;11.20;;;18.50;83.70;;;;;;5059725;28;20490;-83
2022/08/02 03:53:41;;;;;;;72.07;10.50;;;18.50;85.10;;;;;;5059654;28;20442;-82
2022/08/02 03:56:09;;;;;;;70.07;11.00;;;18.50;85.70;;;;;;5060094;28;20425;-82
2022/08/02 03:58:34;;;;;;;71.20;10.87;;;18.50;87.00;;;;;;5041935;28;20455;-82
2022/08/02 04:01:00;;;;;;;69.33;12.33;;;18.50;89.00;;;;;;5041712;28;20465;-83
2022/08/02 04:03:26;;;;;;;71.00;10.70;;;18.40;89.30;;;;;;5059810;28;20622;-82
2022/08/02 04:05:52;;;;;;;69.07;11.27;;;18.50;90.10;;;;;;5041806;28;20252;-82
2022/08/02 04:08:18;;;;;;;68.83;10.63;;;18.50;89.10;;;;;;5059815;28;20431;-82
2022/08/02 04:13:34;;;;;;;73.70;13.10;;;18.50;90.70;;;;;;5059842;28;20559;-82
2022/08/02 04:16:09;;;;;;;72.33;13.33;;;18.40;91.20;;;;;;5059335;28;20399;-82
2022/08/02 04:18:45;;;;;;;71.03;13.90;;;18.50;91.40;;;;;;5058957;28;20447;-82
2022/08/02 04:21:14;;;;;;;70.47;15.07;;;18.50;91.30;;;;;;5059729;28;20384;-83
2022/08/02 04:23:42;;;;;;;70.23;15.20;;;18.40;92.50;;;;;;5058897;28;20817;-82
2022/08/02 04:26:09;;;;;;;73.60;15.70;;;18.40;93.40;;;;;;5058974;28;20405;-82
2022/08/02 04:28:36;;;;;;;72.00;16.77;;;18.40;93.60;;;;;;5059032;28;20981;-83
2022/08/02 04:31:04;;;;;;;72.50;14.17;;;18.50;93.50;;;;;;5059480;28;20399;-83
2022/08/02 04:33:30;;;;;;;71.97;14.97;;;18.50;93.90;;;;;;5059673;28;20490;-82
2022/08/02 04:35:57;;;;;;;72.10;17.03;;;18.40;94.50;;;;;;5059196;28;20517;-83
2022/08/02 04:38:23;;;;;;;70.77;15.83;;;18.50;94.00;;;;;;5058678;28;20461;-82
2022/08/02 04:40:54;;;;;;;72.57;15.10;;;18.50;94.20;;;;;;5058724;28;20842;-83
2022/08/02 04:43:21;;;;;;;76.10;15.57;;;18.50;94.20;;;;;;5058946;28;20403;-82
2022/08/02 04:45:52;;;;;;;79.60;16.73;;;18.50;94.30;;;;;;5058948;28;20442;-82
2022/08/02 04:48:20;;;;;;;70.67;17.33;;;18.50;96.40;;;;;;5058966;28;20431;-83
2022/08/02 04:50:46;;;;;;;74.50;18.93;;;18.50;97.00;;;;;;5058613;28;20454;-82
2022/08/02 04:53:12;;;;;;;72.70;17.90;;;18.60;96.10;;;;;;5058470;28;20419;-82
2022/08/02 04:55:38;;;;;;;71.30;16.53;;;18.60;96.00;;;;;;5040460;28;20426;-83
2022/08/02 04:58:03;;;;;;;72.87;18.23;;;18.40;98.50;;;;;;5058464;28;20207;-82
2022/08/02 05:00:31;;;;;;;76.43;19.70;;;18.50;97.80;;;;;;5058749;28;20169;-82
2022/08/02 05:02:58;;;;;;;77.00;18.60;;;18.50;98.40;;;;;;5040529;28;20188;-82
2022/08/02 05:05:24;;;;;;;72.30;16.97;;;18.50;99.90;;;;;;5058122;28;20404;-82
2022/08/02 05:07:50;;;;;;;71.27;18.23;;;18.50;99.90;;;;;;5058354;28;20424;-82
2022/08/02 05:10:16;;;;;;;71.90;19.87;;;18.50;99.50;;;;;;5058219;28;20427;-82
2022/08/02 05:12:42;;;;;;;74.47;17.40;;;18.50;99.90;;;;;;5057743;28;20419;-82
2022/08/02 05:15:10;;;;;;;70.30;17.13;;;18.60;99.40;;;;;;5057907;28;20434;-82
2022/08/02 05:17:36;;;;;;;73.30;16.17;;;18.70;98.20;;;;;;5039590;28;20185;-82
2022/08/02 05:20:02;;;;;;;70.07;16.47;;;18.80;97.90;;;;;;5058431;28;20410;-82
2022/08/02 05:22:28;;;;;;;72.13;15.80;;;18.90;98.30;;;;;;5040520;28;20171;-82
2022/08/02 05:24:54;;;;;;;72.00;15.10;;;19.00;96.30;;;;;;5058552;28;20404;-82
2022/08/02 05:27:19;;;;;;;75.40;17.70;;;19.00;97.50;;;;;;5058350;28;20178;-82
2022/08/02 05:29:45;;;;;;;71.20;18.70;;;19.00;98.60;;;;;;5057952;28;20204;-83
2022/08/02 05:32:11;;;;;;;74.07;18.30;;;19.00;98.30;;;;;;5041150;28;20169;-83
2022/08/02 05:34:39;;;;;;;70.70;16.67;;;19.00;98.10;;;;;;5057740;28;20174;-82
2022/08/02 05:37:04;;;;;;;73.03;15.40;;;18.90;99.90;;;;;;5057720;28;20188;-82
2022/08/02 05:39:30;;;;;;;72.93;15.93;;;18.80;99.90;;;;;;5039711;28;20432;-82
2022/08/02 05:41:56;;;;;;;79.23;17.70;;;18.80;99.90;;;;;;5057663;28;20160;-82
2022/08/02 05:44:22;;;;;;;73.97;17.63;;;18.70;99.90;;;;;;5039261;28;20197;-82
2022/08/02 05:46:47;;;;;;;73.80;17.47;;;18.70;99.90;;;;;;5057290;28;20173;-82
2022/08/02 05:49:13;;;;;;;80.27;18.67;;;18.80;99.90;;;;;;5057037;28;20196;-82
2022/08/02 05:52:03;;;;;;;73.50;14.27;;;18.70;99.90;;;;;;5057593;28;20256;-82
2022/08/02 05:54:44;;;;;;;79.63;16.50;;;18.70;99.90;;;;;;5039126;28;20216;-81
2022/08/02 05:57:15;;;;;;;71.57;16.07;;;18.70;99.90;;;;;;5056471;28;20850;-82
2022/08/02 06:00:00;;;;;;;73.40;16.40;;;18.70;99.90;;;;;;5057430;28;20427;-81
2022/08/02 06:02:41;;;;;;;75.03;18.60;;;18.80;99.90;;;;;;5038984;28;20747;-81
2022/08/02 06:05:11;;;;;;;73.50;17.07;;;18.80;99.90;;;;;;5059879;28;20434;-82
2022/08/02 06:07:40;;;;;;;71.10;14.57;;;18.80;99.90;;;;;;5042538;28;20768;-82
2022/08/02 06:10:08;;;;;;;72.17;15.93;;;18.90;99.90;;;;;;5042523;28;20778;-82
2022/08/02 06:12:40;;;;;;;77.70;17.77;;;19.00;99.90;;;;;;5059938;28;20510;-82
2022/08/02 06:15:07;;;;;;;72.70;15.67;;;19.00;99.90;;;;;;5059770;28;20403;-83
2022/08/02 06:17:33;;;;;;;74.07;17.33;;;19.00;99.90;;;;;;5062434;28;20438;-82
2022/08/02 06:20:00;;;;;;;75.57;18.90;;;19.00;99.90;;;;;;5062792;28;20438;-82
2022/08/02 06:22:27;;;;;;;76.00;19.00;;;19.00;99.90;;;;;;5044530;28;20469;-82
2022/08/02 06:24:55;;;;;;;73.00;17.70;;;19.10;99.90;;;;;;5062525;28;20410;-82
2022/08/02 06:27:23;;;;;;;71.50;18.37;;;19.10;99.90;;;;;;5044304;28;20472;-82
2022/08/02 06:29:50;;;;;;;72.40;20.40;;;19.20;99.90;;;;;;5041895;28;20426;-80
2022/08/02 06:32:18;;;;;;;73.90;16.70;;;19.20;99.90;;;;;;5056754;28;20831;-80
2022/08/02 06:34:45;;;;;;;72.33;15.87;;;19.10;99.90;;;;;;5057360;28;20573;-80
2022/08/02 06:37:42;;;;;;;72.60;18.90;;;19.20;99.90;;;;;;5059368;28;20439;-82
2022/08/02 06:40:20;;;;;;;72.87;16.47;;;19.20;99.90;;;;;;5063069;28;20385;-82
2022/08/02 06:43:17;;;;;;;71.90;14.20;;;19.20;99.90;;;;;;5062644;28;20866;-82
2022/08/02 06:45:43;;;;;;;71.67;13.70;;;19.30;99.90;;;;;;5057829;28;20419;-82
2022/08/02 06:48:09;;;;;;;74.50;15.10;;;19.30;99.90;;;;;;5061564;28;20422;-82
2022/08/02 06:50:40;;;;;;;71.43;14.07;;;19.40;99.90;;;;;;5062195;28;20461;-83
2022/08/02 06:53:07;;;;;;;70.93;12.67;;;19.50;99.90;;;;;;5045192;28;20431;-82
2022/08/02 06:55:33;;;;;;;75.77;13.53;;;19.50;99.90;;;;;;5062556;28;20419;-82
2022/08/02 06:57:59;;;;;;;69.77;12.67;;;19.60;99.90;;;;;;5063461;28;20458;-82
2022/08/02 07:00:26;;;;;;;71.00;14.03;;;19.70;99.90;;;;;;5044873;28;20474;-82
2022/08/02 07:02:52;;;;;;;68.70;11.67;;;19.70;99.90;;;;;;5063216;28;20411;-83
2022/08/02 07:05:18;;;;;;;68.93;12.50;;;19.80;99.90;;;;;;5045106;28;20407;-82
2022/08/02 07:07:44;;;;;;;69.90;15.30;;;19.90;99.90;;;;;;5063343;28;20451;-82
2022/08/02 07:10:10;;;;;;;70.57;13.60;;;19.90;99.90;;;;;;5062579;28;20387;-82
2022/08/02 07:12:35;;;;;;;68.83;10.90;;;20.10;99.90;;;;;;5044503;28;20412;-82
2022/08/02 07:15:04;;;;;;;67.60;9.30;;;20.20;97.10;;;;;;5063581;28;20905;-83
2022/08/02 07:17:31;;;;;;;67.77;9.10;;;20.20;96.30;;;;;;5062016;28;20206;-82
2022/08/02 07:19:57;;;;;;;67.80;8.23;;;20.30;96.20;;;;;;5062533;28;20419;-83
2022/08/02 07:22:25;;;;;;;66.50;8.07;;;20.40;93.60;;;;;;5044591;28;20441;-83
2022/08/02 07:24:52;;;;;;;67.93;8.07;;;20.40;93.00;;;;;;5061933;28;20453;-83
2022/08/02 07:27:18;;;;;;;69.50;6.80;;;20.50;92.30;;;;;;5043915;28;20415;-82
2022/08/02 07:29:44;;;;;;;70.97;9.33;;;20.60;91.20;;;;;;5062206;28;20434;-82
2022/08/02 07:32:10;;;;;;;74.53;6.50;;;20.70;91.00;;;;;;5062219;28;20412;-83
2022/08/02 07:34:35;;;;;;;74.90;7.63;;;20.70;86.30;;;;;;5044533;28;20176;-83
2022/08/02 07:37:02;;;;;;;66.33;5.53;;;20.80;84.10;;;;;;5063217;28;20190;-83
2022/08/02 07:39:28;;;;;;;68.07;6.30;;;20.90;86.10;;;;;;5044653;28;20219;-83
2022/08/02 07:41:54;;;;;;;67.50;5.90;;;21.00;77.30;;;;;;5062554;28;20544;-82
2022/08/02 07:44:20;;;;;;;69.80;6.97;;;21.10;69.70;;;;;;5062875;28;20157;-82
2022/08/02 07:46:46;;;;;;;67.37;7.53;;;21.20;69.70;;;;;;5062897;28;20166;-82
2022/08/02 07:49:17;;;;;;;68.63;8.03;;;21.20;62.90;;;;;;5061244;28;20423;-81
2022/08/02 07:51:44;;;;;;;73.50;8.20;;;21.40;63.80;;;;;;5062166;28;20411;-83
2022/08/02 07:54:09;;;;;;;67.30;8.67;;;21.50;61.60;;;;;;5061769;28;20426;-82
2022/08/02 07:56:36;;;;;;;66.53;7.40;;;21.60;54.30;;;;;;5062180;28;20400;-82
2022/08/02 07:59:02;;;;;;;69.97;7.20;;;21.70;52.80;;;;;;5062887;28;20183;-83
2022/08/02 08:01:28;;;;;;;68.70;7.80;;;21.80;54.00;;;;;;5045091;28;20420;-82
2022/08/02 08:03:54;;;;;;;67.20;6.77;;;21.90;52.70;;;;;;5062325;28;20399;-83
2022/08/02 08:06:20;;;;;;;70.37;6.80;;;21.90;45.00;;;;;;5044881;28;20399;-81
2022/08/02 08:08:46;;;;;;;68.20;6.17;;;22.00;50.10;;;;;;5044063;28;20196;-83
2022/08/02 08:11:12;;;;;;;66.73;6.07;;;22.10;49.60;;;;;;5046645;28;20259;-83
2022/08/02 08:13:38;;;;;;;71.97;6.80;;;22.10;50.20;;;;;;5062612;28;20435;-83
2022/08/02 08:16:05;;;;;;;68.60;5.47;;;22.20;46.40;;;;;;5061702;28;20395;-84
2022/08/02 08:18:31;;;;;;;68.17;6.00;;;22.30;45.80;;;;;;5062177;28;20454;-83
2022/08/02 08:20:57;;;;;;;69.30;6.17;;;22.40;48.00;;;;;;5044669;28;20461;-83
2022/08/02 08:23:23;;;;;;;69.13;5.50;;;22.40;45.10;;;;;;5061652;28;20404;-83
2022/08/02 08:25:49;;;;;;;67.10;5.30;;;22.60;49.70;;;;;;5062193;28;20240;-83
2022/08/02 08:28:15;;;;;;;67.97;5.70;;;22.70;42.60;;;;;;5044159;28;20461;-83
2022/08/02 08:30:41;;;;;;;69.17;5.70;;;22.70;45.10;;;;;;5062192;28;20502;-83
2022/08/02 08:33:07;;;;;;;68.27;5.90;;;22.80;44.10;;;;;;5061711;28;20161;-84
2022/08/02 08:35:34;;;;;;;66.97;6.90;;;22.90;35.70;;;;;;5062174;28;20412;-83
2022/08/02 08:38:00;;;;;;;67.80;6.53;;;23.00;39.10;;;;;;5043770;28;21055;-83
2022/08/02 08:40:26;;;;;;;70.70;6.13;;;23.20;37.70;;;;;;5043326;28;20407;-82
2022/08/02 08:42:52;;;;;;;68.07;6.80;;;23.40;37.10;;;;;;5061896;28;20771;-82
2022/08/02 08:45:17;;;;;;;72.13;7.53;;;23.50;35.30;;;;;;5061984;28;20411;-83
2022/08/02 08:47:50;;;;;;;68.90;7.03;;;23.50;34.80;;;;;;5061021;28;20196;-82
2022/08/02 08:50:23;;;;;;;71.30;7.80;;;23.50;37.90;;;;;;5043055;28;20216;-83
2022/08/02 08:53:03;;;;;;;68.90;7.50;;;23.60;32.40;;;;;;5128405;22;20482;-82
2022/08/02 08:55:29;;;;;;;68.57;7.30;;;23.70;30.90;;;;;;5060834;28;20392;-82
2022/08/02 08:57:58;;;;;;;70.43;6.77;;;23.80;30.60;;;;;;5059705;28;20889;-82
2022/08/02 09:00:26;;;;;;;68.77;7.70;;;24.00;27.90;;;;;;5060550;28;20412;-82
2022/08/02 09:02:52;;;;;;;70.37;5.37;;;24.20;29.30;;;;;;5061580;28;20399;-82
2022/08/02 09:05:18;;;;;;;72.23;5.27;;;24.30;23.10;;;;;;5061609;28;20479;-82
2022/08/02 09:07:48;;;;;;;69.40;5.13;;;24.40;21.50;;;;;;5060861;28;20478;-82
2022/08/02 09:10:37;;;;;;;67.10;5.23;;;24.60;18.80;;;;;;5059122;28;20455;-81
2022/08/02 09:13:20;;;;;;;68.03;4.40;;;24.60;17.70;;;;;;5061903;28;20440;-82
2022/08/02 09:15:55;;;;;;;68.90;4.30;;;24.70;13.60;;;;;;5060333;28;20732;-82
2022/08/02 09:18:32;;;;;;;66.20;4.57;;;24.60;13.40;;;;;;5057974;28;20462;-81
2022/08/02 09:21:01;;;;;;;67.20;4.60;;;24.50;14.00;;;;;;5060975;28;20386;-82
2022/08/02 09:23:37;;;;;;;71.10;5.87;;;24.60;19.30;;;;;;5059181;28;20411;-81
2022/08/02 09:26:06;;;;;;;70.00;4.90;;;24.60;19.90;;;;;;5060418;28;20380;-82
2022/08/02 09:28:38;;;;;;;68.10;4.37;;;24.60;19.10;;;;;;5058653;28;20434;-82
2022/08/02 09:31:09;;;;;;;67.57;3.20;;;24.80;16.40;;;;;;5060551;28;20487;-81
2022/08/02 09:33:37;;;;;;;65.77;3.40;;;25.00;7.30;;;;;;5060794;28;20383;-82
2022/08/02 09:36:04;;;;;;;66.77;3.40;;;25.30;4.60;;;;;;5060839;28;20379;-82
2022/08/02 09:38:30;;;;;;;67.27;3.67;;;25.50;1.00;;;;;;5061041;28;20455;-81
2022/08/02 09:40:57;;;;;;;66.37;3.13;;;25.60;1.00;;;;;;5060480;28;20404;-82
2022/08/02 09:43:38;;;;;;;66.70;3.43;;;25.80;1.00;;;;;;5060735;28;20408;-82
2022/08/02 09:46:36;;;;;;;65.67;2.93;;;25.90;1.00;;;;;;5061034;28;20381;-81
2022/08/02 09:49:04;;;;;;;66.23;3.33;;;26.00;1.00;;;;;;5056560;28;20449;-81
2022/08/02 09:51:36;;;;;;;65.73;3.00;;;25.90;1.00;;;;;;5062911;28;20406;-81
2022/08/02 09:54:10;;;;;;;66.27;3.13;;;25.90;1.00;;;;;;5062045;28;20449;-81
2022/08/02 09:56:45;;;;;;;66.30;2.77;;;26.00;1.00;;;;;;5064076;28;20468;-81
2022/08/02 09:59:12;;;;;;;66.40;3.07;;;26.20;1.00;;;;;;5062409;28;20449;-81
2022/08/02 10:01:38;;;;;;;67.30;2.67;;;26.40;1.00;;;;;;5064462;28;20800;-81
2022/08/02 10:04:10;;;;;;;67.60;3.10;;;26.50;1.00;;;;;;5064462;28;20394;-81
2022/08/02 10:06:37;;;;;;;66.67;2.70;;;26.70;1.00;;;;;;5065514;28;20732;-81
2022/08/02 10:09:04;;;;;;;66.20;2.77;;;26.90;1.00;;;;;;5064560;28;20426;-81
2022/08/02 10:11:31;;;;;;;66.17;3.13;;;27.10;1.00;;;;;;5064766;28;20406;-81
2022/08/02 10:13:57;;;;;;;68.17;2.77;;;27.10;1.00;;;;;;5063254;28;20480;-81
2022/08/02 10:16:23;;;;;;;66.47;3.20;;;27.00;1.00;;;;;;5064041;28;20403;-81
2022/08/02 10:18:54;;;;;;;67.70;3.23;;;27.00;1.00;;;;;;5063108;28;20981;-81
2022/08/02 10:21:31;;;;;;;70.77;3.30;;;27.10;1.00;;;;;;5065142;28;20395;-81
2022/08/02 10:24:06;;;;;;;68.50;3.30;;;27.40;1.00;;;;;;5064642;28;20372;-81
2022/08/02 10:26:32;;;;;;;67.77;3.10;;;27.60;1.00;;;;;;5064767;28;20406;-81
2022/08/02 10:28:58;;;;;;;68.60;3.70;;;27.70;1.00;;;;;;5065259;28;20506;-82
2022/08/02 10:31:29;;;;;;;68.20;2.83;;;27.70;1.00;;;;;;5064656;28;21120;-82
2022/08/02 10:33:58;;;;;;;65.90;2.73;;;27.70;1.00;;;;;;5064840;28;20153;-81
2022/08/02 10:36:26;;;;;;;68.10;2.57;;;27.70;1.00;;;;;;5064669;28;20396;-82
2022/08/02 10:38:54;;;;;;;66.93;3.03;;;27.60;1.00;;;;;;5064782;28;20474;-81
2022/08/02 10:41:51;;;;;;;67.90;3.20;;;27.50;1.00;;;;;;5066620;28;20406;-82
2022/08/02 10:44:31;;;;;;;66.87;3.03;;;27.40;1.00;;;;;;5066168;28;20402;-82
2022/08/02 10:47:20;;;;;;;66.23;2.57;;;27.10;1.00;;;;;;5063411;28;20405;-81
2022/08/02 10:49:51;;;;;;;66.60;2.60;;;27.10;1.00;;;;;;5065808;28;20423;-82
2022/08/02 10:52:21;;;;;;;67.67;2.60;;;27.10;1.00;;;;;;5063487;28;20415;-81
2022/08/02 10:55:08;;;;;;;67.30;2.77;;;27.00;1.00;;;;;;5065861;28;20459;-81
2022/08/02 10:57:36;;;;;;;66.30;2.70;;;26.90;1.00;;;;;;5064211;28;20441;-81
2022/08/02 11:00:12;;;;;;;67.07;2.77;;;27.10;1.00;;;;;;5065340;28;20441;-81
2022/08/02 11:02:44;;;;;;;66.40;2.80;;;27.50;1.00;;;;;;5062780;28;20464;-82
2022/08/02 11:05:38;;;;;;;68.17;2.53;;;27.60;1.00;;;;;;5063776;28;20400;-82
2022/08/02 11:08:20;;;;;;;67.07;3.77;;;27.60;1.00;;;;;;5064252;28;20435;-81
2022/08/02 11:10:47;;;;;;;68.60;3.17;;;27.70;1.00;;;;;;5063892;28;20406;-82
2022/08/02 11:13:14;;;;;;;66.57;2.50;;;27.80;1.00;;;;;;5061603;28;20438;-81
2022/08/02 11:15:50;;;;;;;66.90;2.60;;;27.80;1.00;;;;;;5063347;28;20399;-81
2022/08/02 11:18:17;;;;;;;67.23;3.73;;;28.00;1.00;;;;;;5063967;28;20447;-81
2022/08/02 11:20:43;;;;;;;70.50;3.40;;;28.40;1.00;;;;;;5064151;28;20392;-81
2022/08/02 11:23:38;;;;;;;67.43;5.37;;;28.60;1.00;;;;;;5062950;28;20464;-81
2022/08/02 11:26:31;;;;;;;68.23;3.50;;;28.90;1.00;;;;;;5063044;28;20894;-81
2022/08/02 11:29:03;;;;;;;70.90;3.77;;;28.90;1.00;;;;;;5062045;28;21023;-81
2022/08/02 11:31:36;;;;;;;66.57;4.20;;;28.90;1.00;;;;;;5064075;28;20388;-81
2022/08/02 11:34:03;;;;;;;67.47;3.80;;;29.20;1.00;;;;;;5061245;28;20404;-81
2022/08/02 11:36:29;;;;;;;70.40;3.17;;;29.60;1.00;;;;;;5062355;28;20395;-81
2022/08/02 11:39:22;;;;;;;68.30;2.30;;;29.80;1.00;;;;;;5061837;28;20466;-81
2022/08/02 11:41:53;;;;;;;67.13;2.77;;;30.30;1.00;;;;;;5061960;28;20203;-81
2022/08/02 11:44:19;;;;;;;66.70;2.60;;;30.50;1.00;;;;;;5061981;28;20422;-81
2022/08/02 11:46:57;;;;;;;67.40;3.40;;;30.70;1.00;;;;;;5063072;28;20411;-81
2022/08/02 11:49:23;;;;;;;66.87;3.17;;;30.80;1.00;;;;;;5062460;28;20426;-81
2022/08/02 11:52:03;;;;;;;71.10;3.20;;;30.90;1.00;;;;;;5062779;28;20395;-81
2022/08/02 11:54:39;;;;;;;66.10;2.73;;;30.90;1.00;;;;;;5063891;28;20233;-81
2022/08/02 11:57:17;;;;;;;67.60;3.03;;;30.90;1.00;;;;;;5063879;28;20486;-81
2022/08/02 11:59:45;;;;;;;66.97;2.70;;;30.90;1.00;;;;;;5061130;28;20446;-81
2022/08/02 12:02:12;;;;;;;66.67;3.30;;;30.90;1.00;;;;;;5062803;28;20408;-82
2022/08/02 12:04:38;;;;;;;66.70;2.70;;;30.70;1.00;;;;;;5063402;28;20403;-81
2022/08/02 12:07:05;;;;;;;67.73;3.40;;;30.40;1.00;;;;;;5064536;28;20408;-81
2022/08/02 12:09:33;;;;;;;67.17;2.80;;;30.40;1.00;;;;;;5062775;28;20431;-81
2022/08/02 12:11:59;;;;;;;68.67;3.00;;;30.40;1.00;;;;;;5063650;28;20475;-81
2022/08/02 12:14:28;;;;;;;67.00;2.60;;;30.30;1.00;;;;;;5062622;28;20399;-81
2022/08/02 12:19:41;;;;;;;69.33;3.00;;;30.60;1.00;;;;;;5061101;28;20509;-78
2022/08/02 12:22:16;;;;;;;66.93;2.60;;;30.70;1.00;;;;;;5060004;28;20918;-80
2022/08/02 12:24:48;;;;;;;68.30;2.30;;;30.50;1.00;;;;;;5058508;28;20837;-80
2022/08/02 12:27:37;;;;;;;66.73;2.77;;;30.20;1.00;;;;;;5059353;28;20391;-80
2022/08/02 12:30:13;;;;;;;66.33;2.80;;;29.90;1.00;;;;;;5061772;28;20463;-81
2022/08/02 12:32:39;;;;;;;66.57;2.80;;;29.80;1.00;;;;;;5058911;28;20403;-81
2022/08/02 12:35:15;;;;;;;66.60;3.20;;;29.60;1.00;;;;;;5062122;28;20411;-81
2022/08/02 12:37:46;;;;;;;66.87;3.00;;;29.60;1.00;;;;;;5063363;28;20767;-81
2022/08/02 12:40:20;;;;;;;66.47;2.87;;;29.40;1.00;;;;;;5061877;28;20810;-81
2022/08/02 12:42:50;;;;;;;66.27;3.00;;;29.40;1.00;;;;;;5061629;28;20410;-81
2022/08/02 12:45:16;;;;;;;66.77;3.00;;;29.20;1.00;;;;;;5062076;28;20964;-81
2022/08/02 12:47:47;;;;;;;67.73;2.87;;;29.00;1.00;;;;;;5061271;28;20415;-81
2022/08/02 12:50:31;;;;;;;66.30;2.87;;;29.20;1.00;;;;;;5059348;28;20164;-81
2022/08/02 12:53:04;;;;;;;68.40;2.50;;;29.20;1.00;;;;;;5060709;28;20497;-81
2022/08/02 12:55:30;;;;;;;67.47;2.60;;;29.20;1.00;;;;;;5063571;28;20404;-81
2022/08/02 12:58:04;;;;;;;65.97;2.50;;;29.10;1.00;;;;;;5061441;28;20884;-81